Time;durP1;ratioP1;P1;durP2;ratioP2;P2;SDS_P1;SDS_P2;PMS_P1;PMS_P2;Temp;Humidity;BMP_temperature;BMP_pressure;BME280_temperature;BME280_humidity;BME280_pressure;Samples;Min_cycle;Max_cycle;Signal;HPM_P1;HPM_P2
2023/02/22 00:00:48;;;;;;;16.40;9.52;;;4.50;1.00;;;;;;6254366;23;20090;-82
2023/02/22 00:03:37;;;;;;;18.38;10.05;;;4.40;15.50;;;;;;6248470;23;20030;-80
2023/02/22 00:06:25;;;;;;;18.80;9.85;;;4.40;99.90;;;;;;6246502;23;20062;-81
2023/02/22 00:09:17;;;;;;;19.70;9.57;;;4.40;99.90;;;;;;6226168;23;20027;-83
2023/02/22 00:12:08;;;;;;;19.33;10.18;;;4.40;99.90;;;;;;6246151;23;20366;-81
2023/02/22 00:14:58;;;;;;;14.57;7.68;;;4.40;99.90;;;;;;6245439;23;20032;-81
2023/02/22 00:17:45;;;;;;;19.92;9.90;;;4.40;99.90;;;;;;6243128;23;20035;-81
2023/02/22 00:20:38;;;;;;;23.27;10.73;;;4.30;99.90;;;;;;6245147;23;20051;-82
2023/02/22 00:23:28;;;;;;;16.45;9.82;;;4.30;1.00;;;;;;6243991;23;20028;-81
2023/02/22 00:26:23;;;;;;;25.65;11.07;;;4.50;99.90;;;;;;6244492;23;20047;-82
2023/02/22 00:29:10;;;;;;;22.42;11.18;;;4.50;99.90;;;;;;6245093;23;20086;-81
2023/02/22 00:32:00;;;;;;;22.17;12.57;;;4.50;99.90;;;;;;6223788;23;20020;-81
2023/02/22 00:34:52;;;;;;;21.65;10.68;;;4.50;99.90;;;;;;6246340;23;20020;-81
2023/02/22 00:37:40;;;;;;;17.65;10.05;;;4.40;1.00;;;;;;6223626;23;20021;-81
2023/02/22 00:40:34;;;;;;;20.65;10.75;;;4.30;1.00;;;;;;6224071;23;20438;-82
2023/02/22 00:43:21;;;;;;;21.73;10.27;;;4.30;99.90;;;;;;6226423;23;20051;-80
2023/02/22 00:46:09;;;;;;;24.65;11.52;;;4.20;1.00;;;;;;6225862;23;20051;-81
2023/02/22 00:48:56;;;;;;;22.10;10.07;;;4.20;1.00;;;;;;6253292;23;20035;-81
2023/02/22 00:51:43;;;;;;;19.70;9.52;;;4.30;1.00;;;;;;6246485;23;20082;-81
2023/02/22 00:54:30;;;;;;;21.17;10.55;;;4.30;1.00;;;;;;6225264;23;20150;-81
2023/02/22 00:57:20;;;;;;;22.10;11.55;;;4.30;1.00;;;;;;6245097;23;20024;-81
2023/02/22 01:00:14;;;;;;;18.45;9.90;;;4.20;1.00;;;;;;6247234;23;20024;-81
2023/02/22 01:03:09;;;;;;;20.60;10.27;;;4.10;1.00;;;;;;6245317;23;20131;-81
2023/02/22 01:05:56;;;;;;;22.13;11.00;;;4.10;1.00;;;;;;6246483;23;20289;-82
2023/02/22 01:08:45;;;;;;;19.15;10.02;;;4.10;12.10;;;;;;6225798;23;20031;-81
2023/02/22 01:11:32;;;;;;;20.60;10.82;;;4.00;90.30;;;;;;6246300;23;20028;-80
2023/02/22 01:14:25;;;;;;;20.75;10.27;;;4.10;99.90;;;;;;6245911;23;20031;-81
2023/02/22 01:17:12;;;;;;;22.35;11.63;;;4.10;99.90;;;;;;6224658;23;20059;-82
2023/02/22 01:19:59;;;;;;;27.73;11.75;;;4.00;1.00;;;;;;6246367;23;20032;-81
2023/02/22 01:22:48;;;;;;;25.80;11.88;;;4.00;4.40;;;;;;6245897;23;20130;-81
2023/02/22 01:25:38;;;;;;;28.08;12.68;;;4.00;99.90;;;;;;6245474;23;20035;-81
2023/02/22 01:28:25;;;;;;;25.73;11.45;;;4.10;99.90;;;;;;6246634;23;20031;-81
2023/02/22 01:31:22;;;;;;;31.33;13.38;;;4.20;1.00;;;;;;6229310;23;20174;-81
2023/02/22 01:34:14;;;;;;;26.60;13.00;;;4.40;89.20;;;;;;6252351;23;20391;-82
2023/02/22 01:37:01;;;;;;;25.52;11.63;;;4.50;1.00;;;;;;6254964;23;20028;-82
2023/02/22 01:39:50;;;;;;;22.63;11.40;;;4.40;99.90;;;;;;6248255;23;20296;-80
2023/02/22 01:42:38;;;;;;;28.27;11.95;;;4.40;99.90;;;;;;6245184;23;20028;-82
2023/02/22 01:45:36;;;;;;;20.77;11.85;;;4.50;99.90;;;;;;6224935;23;20342;-82
2023/02/22 01:48:33;;;;;;;23.58;10.95;;;4.50;99.90;;;;;;6246497;23;20036;-80
2023/02/22 01:51:25;;;;;;;19.63;11.13;;;4.50;99.90;;;;;;6245181;23;20078;-80
2023/02/22 01:54:28;;;;;;;20.75;11.73;;;4.50;99.90;;;;;;6243902;23;20075;-81
2023/02/22 01:57:30;;;;;;;25.65;11.93;;;4.60;99.90;;;;;;6245213;23;20442;-81
2023/02/22 02:00:20;;;;;;;21.63;10.43;;;4.70;1.00;;;;;;6225446;23;20052;-81
2023/02/22 02:03:15;;;;;;;23.83;10.50;;;4.70;99.90;;;;;;6246000;23;20030;-81
2023/02/22 02:06:14;;;;;;;19.33;8.57;;;4.70;99.90;;;;;;6245704;23;20031;-81
2023/02/22 02:09:09;;;;;;;19.02;8.23;;;4.50;1.00;;;;;;6243717;23;20114;-80
2023/02/22 02:12:03;;;;;;;15.77;7.00;;;4.30;99.90;;;;;;6224391;23;20097;-80
2023/02/22 02:14:51;;;;;;;18.90;8.63;;;4.00;99.90;;;;;;6246155;23;20155;-81
2023/02/22 02:17:38;;;;;;;15.90;8.45;;;3.90;99.90;;;;;;6246519;23;20070;-80
2023/02/22 02:20:28;;;;;;;21.05;9.93;;;3.80;99.90;;;;;;6245169;23;20117;-81
2023/02/22 02:23:54;;;;;;;20.67;9.95;;;3.70;99.90;;;;;;6250198;23;20051;-81
2023/02/22 02:27:31;;;;;;;23.00;11.27;;;3.80;59.40;;;;;;6244536;23;20024;-81
2023/02/22 02:30:37;;;;;;;19.35;10.45;;;3.90;99.90;;;;;;6203600;23;20031;-81
2023/02/22 02:33:41;;;;;;;21.88;10.60;;;4.00;1.00;;;;;;6221728;23;20024;-81
2023/02/22 02:53:07;;;;;;;19.27;10.82;;;3.80;1.00;;;;;;6243612;23;20615;-82
2023/02/22 02:55:54;;;;;;;24.88;10.77;;;3.80;99.90;;;;;;6244135;23;20024;-81
2023/02/22 02:58:49;;;;;;;24.75;11.45;;;3.80;99.90;;;;;;6222468;23;20051;-81
2023/02/22 03:02:04;;;;;;;24.38;10.68;;;3.80;99.90;;;;;;6243961;23;20039;-81
2023/02/22 03:05:25;;;;;;;26.15;11.63;;;3.80;99.90;;;;;;6222085;23;20109;-81
2023/02/22 03:08:43;;;;;;;24.08;11.13;;;3.70;99.90;;;;;;6222927;23;20424;-80
2023/02/22 03:11:52;;;;;;;26.73;10.82;;;3.70;99.90;;;;;;6230857;23;20020;-81
2023/02/22 03:14:54;;;;;;;22.58;11.10;;;3.70;99.90;;;;;;6244787;23;20062;-80
2023/02/22 03:18:02;;;;;;;25.98;11.40;;;3.70;99.90;;;;;;6244981;23;20071;-81
2023/02/22 03:21:09;;;;;;;18.27;10.68;;;3.60;99.90;;;;;;6244903;23;20024;-82
2023/02/22 03:24:21;;;;;;;20.10;10.63;;;3.50;99.90;;;;;;6244224;23;20118;-81
2023/02/22 03:27:34;;;;;;;24.27;11.05;;;3.40;99.90;;;;;;6244090;23;20456;-81
2023/02/22 03:30:36;;;;;;;20.88;11.13;;;3.40;99.90;;;;;;6223666;23;20099;-81
2023/02/22 03:33:32;;;;;;;;;;;3.40;99.90;;;;;;6244081;23;20034;-81
2023/02/22 03:36:25;;;;;;;18.30;10.02;;;3.40;19.80;;;;;;6246452;23;19915;-81
2023/02/22 03:39:15;;;;;;;21.38;11.07;;;3.40;83.50;;;;;;6243859;23;20028;-81
2023/02/22 03:42:08;;;;;;;23.95;12.35;;;3.40;99.90;;;;;;6244290;23;20024;-81
2023/02/22 03:44:59;;;;;;;23.77;11.50;;;3.40;99.90;;;;;;6244036;23;20031;-81
2023/02/22 03:47:50;;;;;;;22.08;11.85;;;3.30;99.90;;;;;;6243747;23;20032;-81
2023/02/22 03:50:40;;;;;;;23.38;11.68;;;3.30;1.00;;;;;;6221946;23;20029;-81
2023/02/22 03:53:30;;;;;;;23.80;11.25;;;3.20;1.00;;;;;;6242395;23;20028;-81
2023/02/22 03:56:24;;;;;;;24.73;11.20;;;3.10;1.00;;;;;;6243875;23;20095;-81
2023/02/22 03:59:12;;;;;;;25.10;10.77;;;2.90;99.90;;;;;;6229499;23;20043;-81
2023/02/22 04:01:59;;;;;;;24.05;10.52;;;2.70;99.90;;;;;;6244165;23;20059;-81
2023/02/22 04:04:47;;;;;;;23.98;11.10;;;2.60;99.90;;;;;;6221789;23;20395;-81
2023/02/22 04:07:36;;;;;;;21.15;11.38;;;2.50;99.90;;;;;;6244484;23;20027;-81
2023/02/22 04:10:29;;;;;;;21.92;10.10;;;2.40;1.00;;;;;;6245042;23;20634;-81
2023/02/22 04:13:16;;;;;;;24.10;12.35;;;2.30;99.90;;;;;;6245423;23;20101;-82
2023/02/22 04:16:03;;;;;;;21.67;11.68;;;2.30;1.00;;;;;;6244489;23;20107;-81
2023/02/22 04:18:51;;;;;;;23.85;11.75;;;2.30;99.90;;;;;;6247573;23;20028;-81
2023/02/22 04:21:38;;;;;;;31.30;13.18;;;2.30;1.00;;;;;;6247354;23;20086;-81
2023/02/22 04:24:25;;;;;;;25.20;12.13;;;2.20;1.00;;;;;;6245406;23;20031;-81
2023/02/22 04:27:15;;;;;;;24.90;13.48;;;2.10;1.00;;;;;;6225303;23;20407;-81
2023/02/22 04:30:02;;;;;;;22.65;12.70;;;2.10;99.90;;;;;;6247046;23;20081;-82
2023/02/22 04:32:50;;;;;;;24.40;12.98;;;2.00;99.90;;;;;;6245824;23;20035;-80
2023/02/22 04:35:37;;;;;;;25.92;13.05;;;2.10;1.00;;;;;;6246223;23;20024;-81
2023/02/22 04:38:26;;;;;;;25.63;14.40;;;2.30;1.00;;;;;;6245833;23;20308;-81
2023/02/22 04:41:13;;;;;;;31.67;14.57;;;2.40;1.00;;;;;;6246419;23;20035;-81
2023/02/22 04:44:00;;;;;;;28.65;13.38;;;2.40;1.00;;;;;;6248482;23;20312;-81
2023/02/22 04:46:48;;;;;;;27.80;16.33;;;2.30;1.00;;;;;;6252386;23;20024;-80
2023/02/22 04:49:35;;;;;;;33.67;16.42;;;2.20;1.00;;;;;;6245751;23;20024;-80
2023/02/22 04:52:25;;;;;;;29.50;14.90;;;2.20;1.00;;;;;;6246070;23;20055;-81
2023/02/22 04:55:13;;;;;;;29.95;16.02;;;2.30;92.50;;;;;;6245296;23;20052;-81
2023/02/22 04:58:00;;;;;;;30.30;15.85;;;2.30;99.90;;;;;;6245539;23;20024;-81
2023/02/22 05:00:57;;;;;;;38.03;15.40;;;2.40;99.90;;;;;;6246058;23;20043;-81
2023/02/22 05:04:07;;;;;;;37.50;15.20;;;2.30;99.90;;;;;;6182551;23;20032;-80
2023/02/22 05:06:54;;;;;;;29.92;14.77;;;2.30;99.90;;;;;;6162140;23;20029;-80
2023/02/22 05:09:42;;;;;;;31.05;15.15;;;2.30;99.90;;;;;;6182168;23;20405;-80
2023/02/22 05:12:29;;;;;;;28.10;14.60;;;2.40;99.90;;;;;;6183024;23;20021;-80
2023/02/22 05:15:19;;;;;;;32.85;15.40;;;2.50;99.90;;;;;;6162885;23;20197;-81
2023/02/22 05:18:08;;;;;;;35.70;16.90;;;2.60;99.90;;;;;;6184091;23;20020;-81
2023/02/22 05:20:55;;;;;;;32.10;17.20;;;2.80;99.90;;;;;;6183050;23;20428;-80
2023/02/22 05:23:45;;;;;;;31.88;15.82;;;2.90;99.90;;;;;;6182712;23;20025;-80
2023/02/22 05:26:32;;;;;;;32.78;15.48;;;3.00;99.90;;;;;;6183379;23;20126;-80
2023/02/22 05:29:20;;;;;;;34.72;14.60;;;3.00;99.90;;;;;;6180992;23;20043;-82
2023/02/22 05:32:13;;;;;;;28.42;13.48;;;3.00;99.90;;;;;;6164368;23;20503;-81
2023/02/22 05:35:07;;;;;;;30.88;14.95;;;3.00;99.90;;;;;;6236878;23;20111;-82
2023/02/22 05:37:58;;;;;;;25.77;13.43;;;2.90;99.90;;;;;;6245430;23;20024;-82
2023/02/22 05:40:48;;;;;;;29.40;14.02;;;2.80;99.90;;;;;;6222976;23;20024;-83
2023/02/22 05:43:53;;;;;;;27.55;13.50;;;2.70;99.90;;;;;;6245158;23;20454;-81
2023/02/22 05:46:41;;;;;;;29.92;13.63;;;2.70;99.90;;;;;;6224192;23;20106;-81
2023/02/22 05:49:29;;;;;;;22.88;13.00;;;2.80;99.90;;;;;;6224767;23;20032;-83
2023/02/22 05:52:18;;;;;;;29.05;13.63;;;2.80;99.90;;;;;;6245352;23;20362;-83
2023/02/22 05:55:08;;;;;;;29.65;14.40;;;2.80;99.90;;;;;;6244992;23;20032;-84
2023/02/22 05:57:55;;;;;;;26.85;13.05;;;2.90;99.90;;;;;;6245232;23;20035;-81
2023/02/22 06:00:42;;;;;;;28.50;14.63;;;2.90;99.90;;;;;;6247048;23;20020;-81
2023/02/22 06:03:29;;;;;;;22.30;13.23;;;2.90;99.90;;;;;;6226335;23;20035;-80
2023/02/22 06:06:18;;;;;;;19.92;11.82;;;2.80;1.00;;;;;;6224760;23;20051;-83
2023/02/22 06:09:08;;;;;;;21.60;13.23;;;2.60;99.90;;;;;;6244830;23;20035;-82
2023/02/22 06:11:55;;;;;;;26.27;12.07;;;2.40;99.90;;;;;;6246600;23;20024;-82
2023/02/22 06:14:44;;;;;;;25.63;12.38;;;2.40;98.20;;;;;;6245239;23;20074;-81
2023/02/22 06:17:35;;;;;;;22.42;12.02;;;2.30;99.90;;;;;;6245459;23;20416;-80
2023/02/22 06:20:24;;;;;;;26.08;12.68;;;2.20;99.90;;;;;;6246797;23;20397;-81
2023/02/22 06:23:14;;;;;;;25.35;12.50;;;2.30;99.90;;;;;;6231860;23;20024;-81
2023/02/22 06:26:02;;;;;;;30.73;13.45;;;2.20;99.90;;;;;;6245334;23;20079;-81
2023/02/22 06:28:49;;;;;;;24.10;12.73;;;2.30;1.00;;;;;;6243659;23;20023;-80
2023/02/22 06:31:36;;;;;;;23.65;12.20;;;2.30;1.00;;;;;;6245669;23;20273;-80
2023/02/22 06:34:27;;;;;;;27.20;14.93;;;2.30;1.00;;;;;;6224903;23;20103;-80
2023/02/22 06:37:14;;;;;;;32.65;15.57;;;2.40;1.00;;;;;;6245438;23;20020;-80
2023/02/22 06:40:04;;;;;;;30.33;15.20;;;2.40;1.00;;;;;;6243978;23;20408;-80
2023/02/22 06:42:52;;;;;;;29.40;15.52;;;2.50;99.90;;;;;;6244054;23;20032;-80
2023/02/22 06:45:45;;;;;;;28.88;16.00;;;2.50;99.90;;;;;;6222948;23;20043;-81
2023/02/22 06:48:32;;;;;;;25.30;15.23;;;2.50;99.90;;;;;;6242938;23;20024;-79
2023/02/22 06:51:22;;;;;;;31.75;15.38;;;2.60;99.90;;;;;;6244565;23;20024;-79
2023/02/22 06:54:09;;;;;;;30.17;14.90;;;2.80;1.00;;;;;;6245157;23;20107;-81
2023/02/22 06:56:57;;;;;;;31.08;15.25;;;3.00;1.00;;;;;;6247182;23;20024;-80
2023/02/22 06:59:44;;;;;;;30.83;16.05;;;3.20;99.90;;;;;;6246556;23;20031;-81
2023/02/22 07:02:31;;;;;;;35.40;16.27;;;3.40;99.90;;;;;;6231872;23;20028;-82
2023/02/22 07:05:20;;;;;;;31.65;14.82;;;3.60;99.90;;;;;;6246875;23;20086;-83
2023/02/22 07:08:08;;;;;;;27.33;14.68;;;3.80;99.90;;;;;;6245647;23;20028;-82
2023/02/22 07:10:58;;;;;;;27.20;14.43;;;3.90;99.90;;;;;;6230333;23;20066;-82
2023/02/22 07:13:45;;;;;;;19.55;10.95;;;4.10;99.90;;;;;;6245376;23;20035;-82
2023/02/22 07:16:34;;;;;;;22.27;11.82;;;4.10;78.60;;;;;;6243027;23;20304;-80
2023/02/22 07:19:23;;;;;;;24.60;11.82;;;4.20;99.90;;;;;;6222972;23;20055;-80
2023/02/22 07:22:13;;;;;;;20.13;10.10;;;4.30;99.90;;;;;;6244293;23;20039;-81
2023/02/22 07:25:00;;;;;;;19.83;10.75;;;4.40;1.00;;;;;;6244513;23;20034;-81
2023/02/22 07:27:51;;;;;;;18.05;10.68;;;4.60;99.90;;;;;;6245573;23;20047;-81
2023/02/22 07:30:45;;;;;;;17.67;11.27;;;4.80;1.00;;;;;;6245092;23;20028;-83
2023/02/22 07:33:32;;;;;;;21.83;11.48;;;5.00;99.90;;;;;;6244746;23;20027;-82
2023/02/22 07:36:20;;;;;;;17.90;10.00;;;5.10;1.00;;;;;;6245348;23;20375;-83
2023/02/22 07:39:07;;;;;;;15.60;8.95;;;5.40;99.90;;;;;;6223114;23;20024;-86
2023/02/22 07:41:58;;;;;;;14.63;8.77;;;5.70;5.00;;;;;;6244039;23;20028;-85
2023/02/22 07:44:45;;;;;;;14.10;8.68;;;6.00;1.00;;;;;;6244965;23;20035;-81
2023/02/22 07:47:32;;;;;;;13.90;7.57;;;6.40;99.90;;;;;;6244862;23;20029;-83
2023/02/22 07:50:21;;;;;;;15.23;8.63;;;7.00;43.50;;;;;;6230175;23;20046;-83
2023/02/22 07:53:24;;;;;;;12.52;6.97;;;7.40;1.00;;;;;;6257181;23;20020;-81
2023/02/22 07:56:17;;;;;;;10.88;7.13;;;7.70;99.90;;;;;;6239071;23;20024;-83
2023/02/22 07:59:04;;;;;;;14.98;7.32;;;7.90;99.90;;;;;;6236461;23;20124;-83
2023/02/22 08:01:51;;;;;;;15.63;6.47;;;8.10;2.30;;;;;;6267638;22;20018;-82
2023/02/22 08:04:39;;;;;;;16.40;7.63;;;8.20;1.00;;;;;;6269354;22;20043;-84
2023/02/22 08:07:28;;;;;;;12.45;7.32;;;8.30;1.00;;;;;;6265283;23;20024;-84
2023/02/22 08:10:19;;;;;;;12.88;6.50;;;8.20;1.00;;;;;;6234619;23;20031;-83
2023/02/22 08:13:06;;;;;;;13.20;6.55;;;8.20;1.00;;;;;;6235988;23;20024;-82
2023/02/22 08:15:54;;;;;;;13.48;7.03;;;8.10;99.90;;;;;;6237974;23;20024;-82
2023/02/22 08:18:42;;;;;;;13.77;6.50;;;8.10;99.90;;;;;;6248984;23;20047;-82
2023/02/22 08:21:32;;;;;;;11.05;6.20;;;8.10;99.90;;;;;;6245116;23;20080;-83
2023/02/22 08:24:19;;;;;;;13.57;6.40;;;8.30;99.90;;;;;;6222392;23;20024;-81
2023/02/22 08:27:07;;;;;;;11.70;6.60;;;8.50;99.90;;;;;;6245511;23;20032;-82
2023/02/22 08:29:56;;;;;;;10.70;6.05;;;8.70;99.90;;;;;;6243579;23;20020;-83
2023/02/22 08:32:47;;;;;;;15.05;6.47;;;9.30;99.90;;;;;;6202031;23;20335;-81
2023/02/22 08:35:39;;;;;;;14.43;6.20;;;9.80;99.90;;;;;;6221355;23;20035;-82
2023/02/22 08:38:33;;;;;;;11.07;5.60;;;10.20;99.90;;;;;;6245091;23;20024;-81
2023/02/22 08:41:20;;;;;;;9.98;5.57;;;10.60;99.90;;;;;;6243626;23;20031;-82
2023/02/22 08:44:08;;;;;;;10.82;5.63;;;11.40;99.90;;;;;;6246083;23;20028;-83
2023/02/22 08:47:04;;;;;;;9.43;5.35;;;12.30;99.90;;;;;;6251228;23;20116;-83
2023/02/22 08:49:59;;;;;;;10.18;4.57;;;13.10;99.90;;;;;;6245167;23;20435;-82
2023/02/22 08:52:48;;;;;;;8.65;4.95;;;13.50;99.90;;;;;;6243990;23;20031;-85
2023/02/22 08:55:37;;;;;;;11.05;4.97;;;14.20;99.90;;;;;;6243869;23;20035;-85
2023/02/22 08:58:24;;;;;;;8.38;4.38;;;15.00;99.90;;;;;;6245090;23;20020;-84
2023/02/22 09:01:21;;;;;;;7.45;4.88;;;15.60;99.90;;;;;;6245105;23;20443;-84
2023/02/22 09:04:19;;;;;;;8.27;5.10;;;15.90;95.20;;;;;;6245859;23;20284;-84
2023/02/22 09:07:07;;;;;;;8.52;4.72;;;16.40;85.10;;;;;;6245413;23;20371;-84
2023/02/22 09:09:54;;;;;;;8.55;4.93;;;16.50;63.00;;;;;;6246002;23;20424;-84
2023/02/22 09:12:42;;;;;;;8.13;4.88;;;16.30;54.20;;;;;;6224097;23;20024;-80
2023/02/22 09:15:35;;;;;;;7.22;4.90;;;15.90;43.00;;;;;;6245136;23;20020;-81
2023/02/22 09:18:22;;;;;;;7.18;4.57;;;15.70;36.30;;;;;;6245769;23;20024;-81
2023/02/22 09:21:11;;;;;;;7.88;4.90;;;15.60;31.80;;;;;;6245498;23;20024;-83
2023/02/22 09:24:07;;;;;;;13.35;5.30;;;15.50;28.40;;;;;;6225044;23;20071;-81
2023/02/22 09:26:54;;;;;;;10.13;4.55;;;15.40;25.90;;;;;;6225055;23;20023;-81
2023/02/22 09:29:41;;;;;;;7.40;4.25;;;15.30;23.90;;;;;;6244981;23;20055;-77
2023/02/22 09:32:29;;;;;;;9.85;4.63;;;15.60;23.30;;;;;;6246519;23;20035;-78
2023/02/22 09:35:19;;;;;;;14.32;5.32;;;16.10;21.60;;;;;;6224652;23;20489;-79
2023/02/22 09:38:06;;;;;;;8.77;4.35;;;16.60;19.40;;;;;;6245478;23;20035;-79
2023/02/22 09:41:31;;;;;;;11.40;4.45;;;17.40;15.10;;;;;;6244232;23;20101;-80
2023/02/22 09:44:35;;;;;;;10.70;3.90;;;18.00;9.50;;;;;;6246861;23;20454;-78
2023/02/22 09:47:39;;;;;;;8.45;4.20;;;18.30;2.40;;;;;;6246521;23;20032;-79
2023/02/22 09:50:35;;;;;;;6.32;4.13;;;18.20;1.00;;;;;;6245010;23;20348;-80
2023/02/22 09:53:40;;;;;;;12.52;4.05;;;18.50;1.00;;;;;;6245513;23;20047;-81
2023/02/22 09:56:30;;;;;;;7.60;3.70;;;18.00;1.00;;;;;;6246009;23;20046;-79
2023/02/22 09:59:26;;;;;;;6.07;3.70;;;18.60;1.00;;;;;;6244896;23;20427;-81
2023/02/22 10:02:19;;;;;;;5.88;3.30;;;18.80;1.00;;;;;;6245893;23;20243;-82
2023/02/22 10:05:27;;;;;;;11.10;3.70;;;18.60;1.00;;;;;;6221729;23;20404;-81
2023/02/22 10:08:38;;;;;;;5.82;2.90;;;18.90;1.00;;;;;;6193340;23;20038;-83
2023/02/22 10:11:31;;;;;;;9.43;3.67;;;19.90;1.00;;;;;;6242973;23;20028;-81
2023/02/22 10:18:53;;;;;;;7.82;3.25;;;19.40;1.00;;;;;;6243389;23;20000;-83
2023/02/22 10:22:18;;;;;;;4.10;2.92;;;18.90;1.00;;;;;;6230160;23;20082;-82
2023/02/22 10:29:31;;;;;;;6.90;3.30;;;19.90;1.00;;;;;;6243685;23;20008;-82
2023/02/22 10:32:27;;;;;;;4.72;3.03;;;19.20;1.00;;;;;;6244403;23;20028;-82
2023/02/22 10:35:22;;;;;;;8.70;3.25;;;19.80;1.00;;;;;;6244629;23;20030;-81
2023/02/22 10:38:18;;;;;;;6.55;2.95;;;21.30;1.00;;;;;;6245444;23;20031;-81
2023/02/22 10:41:09;;;;;;;5.47;3.20;;;22.00;1.00;;;;;;6244030;23;20099;-82
2023/02/22 10:43:57;;;;;;;6.88;2.95;;;22.30;1.00;;;;;;6244513;23;20028;-82
2023/02/22 10:46:48;;;;;;;4.05;2.00;;;22.40;1.00;;;;;;6244375;23;20043;-81
2023/02/22 10:49:42;;;;;;;5.85;2.92;;;22.20;1.00;;;;;;6244822;23;20024;-82
2023/02/22 10:52:33;;;;;;;5.25;3.20;;;22.40;1.00;;;;;;6243885;23;20020;-82
2023/02/22 11:04:18;;;;;;;4.45;3.30;;;21.80;1.00;;;;;;6243925;23;20012;-80
2023/02/22 11:07:10;;;;;;;;;;;20.40;1.00;;;;;;6246336;23;20031;-81
2023/02/22 11:10:06;;;;;;;8.82;3.75;;;21.00;1.00;;;;;;6227633;23;19935;-85
2023/02/22 11:12:54;;;;;;;8.43;3.65;;;21.30;1.00;;;;;;6245500;23;20020;-85
2023/02/22 11:15:42;;;;;;;4.88;3.30;;;22.50;1.00;;;;;;6224332;23;20020;-83
2023/02/22 11:18:36;;;;;;;10.40;3.75;;;21.50;1.00;;;;;;6223069;23;20024;-83
2023/02/22 11:21:23;;;;;;;6.63;4.07;;;19.40;1.00;;;;;;6202898;23;20482;-83
2023/02/22 11:24:14;;;;;;;7.38;3.15;;;19.10;1.00;;;;;;6245587;23;20055;-84
2023/02/22 11:27:05;;;;;;;5.32;3.50;;;20.10;1.00;;;;;;6223338;23;20028;-82
2023/02/22 11:29:52;;;;;;;6.85;3.25;;;20.50;1.00;;;;;;6244271;23;20077;-82
2023/02/22 11:32:47;;;;;;;7.30;3.42;;;20.40;1.00;;;;;;6244738;23;20024;-84
2023/02/22 11:35:57;;;;;;;5.28;3.38;;;20.20;1.00;;;;;;6246340;23;20016;-84
2023/02/22 11:39:04;;;;;;;8.07;3.45;;;19.70;1.00;;;;;;6223961;23;20028;-85
2023/02/22 11:41:52;;;;;;;4.18;2.70;;;19.10;1.00;;;;;;6221910;23;20035;-86
2023/02/22 11:44:43;;;;;;;5.25;3.15;;;18.90;1.00;;;;;;6222065;23;20335;-83
2023/02/22 11:47:31;;;;;;;5.38;2.95;;;19.40;1.00;;;;;;6245045;23;20509;-83
2023/02/22 11:50:29;;;;;;;5.90;2.65;;;20.20;1.00;;;;;;6244485;23;20024;-83
2023/02/22 11:53:57;;;;;;;7.53;3.28;;;19.80;1.00;;;;;;6245196;23;20442;-85
2023/02/22 11:56:49;;;;;;;4.88;3.05;;;19.30;1.00;;;;;;6251058;23;20312;-83
2023/02/22 11:59:39;;;;;;;10.40;3.13;;;19.70;1.00;;;;;;6244808;23;20038;-81
2023/02/22 12:02:54;;;;;;;6.80;2.97;;;20.00;1.00;;;;;;6244538;23;20024;-82
2023/02/22 12:06:23;;;;;;;5.65;3.08;;;20.10;1.00;;;;;;6243406;23;20028;-83
2023/02/22 12:09:31;;;;;;;7.05;3.30;;;20.90;1.00;;;;;;6244115;23;20396;-83
2023/02/22 12:13:01;;;;;;;7.97;3.67;;;22.00;1.00;;;;;;6244790;23;20032;-83
2023/02/22 12:16:12;;;;;;;6.82;3.20;;;22.20;1.00;;;;;;6222091;23;20032;-83
2023/02/22 12:19:20;;;;;;;7.65;4.35;;;21.50;1.00;;;;;;6244181;23;20503;-84
2023/02/22 12:22:28;;;;;;;11.68;5.05;;;21.00;1.00;;;;;;6244527;23;20028;-84
2023/02/22 12:25:28;;;;;;;12.25;5.90;;;20.30;1.00;;;;;;6223403;23;20028;-84
2023/02/22 12:28:24;;;;;;;11.85;6.00;;;19.50;1.00;;;;;;6224466;23;20039;-83
2023/02/22 12:31:17;;;;;;;12.13;6.07;;;19.20;1.00;;;;;;6245346;23;20039;-81
2023/02/22 12:34:11;;;;;;;9.73;5.60;;;19.20;1.00;;;;;;6222649;23;20359;-83
2023/02/22 12:37:09;;;;;;;8.90;5.20;;;19.60;1.00;;;;;;6221588;23;20052;-83
2023/02/22 12:40:24;;;;;;;12.63;6.03;;;19.80;1.00;;;;;;6226599;23;20024;-81
2023/02/22 12:43:53;;;;;;;12.40;5.88;;;19.80;1.00;;;;;;6254579;23;20038;-85
2023/02/22 12:46:45;;;;;;;10.85;5.53;;;20.40;1.00;;;;;;6230804;23;20059;-86
2023/02/22 12:49:44;;;;;;;15.13;5.40;;;21.70;1.00;;;;;;6248651;23;20115;-82
2023/02/22 12:52:56;;;;;;;14.23;6.07;;;22.00;1.00;;;;;;6247172;23;20028;-83
2023/02/22 12:56:10;;;;;;;10.30;6.20;;;21.40;1.00;;;;;;6226372;23;20031;-83
2023/02/22 12:59:29;;;;;;;14.57;6.40;;;22.20;1.00;;;;;;6226421;23;20024;-83
2023/02/22 13:02:35;;;;;;;12.88;5.65;;;22.30;1.00;;;;;;6246871;23;20032;-82
2023/02/22 13:05:23;;;;;;;13.77;6.18;;;22.80;1.00;;;;;;6246724;23;20408;-82
2023/02/22 13:08:51;;;;;;;12.82;6.70;;;22.40;1.00;;;;;;6247313;23;20028;-85
2023/02/22 13:11:50;;;;;;;10.60;6.03;;;23.00;1.00;;;;;;6194934;23;20311;-82
2023/02/22 13:15:09;;;;;;;9.48;6.65;;;23.30;1.00;;;;;;6246973;23;20024;-83
2023/02/22 13:18:31;;;;;;;14.50;6.57;;;22.40;1.00;;;;;;6135805;23;20300;-84
2023/02/22 13:21:35;;;;;;;14.88;7.55;;;21.10;1.00;;;;;;6164378;23;20024;-83
2023/02/22 13:24:42;;;;;;;15.15;6.35;;;21.10;1.00;;;;;;6224467;23;20059;-83
2023/02/22 13:27:36;;;;;;;9.90;6.65;;;21.20;1.00;;;;;;6245832;23;20024;-82
2023/02/22 13:30:48;;;;;;;11.82;6.05;;;21.80;1.00;;;;;;6248042;23;20036;-83
2023/02/22 13:33:41;;;;;;;12.00;7.50;;;21.70;1.00;;;;;;6248360;23;20400;-83
2023/02/22 13:36:37;;;;;;;11.82;7.65;;;20.70;1.00;;;;;;6245275;23;20020;-83
2023/02/22 13:39:53;;;;;;;14.18;7.65;;;19.60;1.00;;;;;;6247048;23;20019;-83
2023/02/22 13:43:22;;;;;;;16.85;7.50;;;19.70;1.00;;;;;;6223668;23;20082;-82
2023/02/22 13:46:33;;;;;;;9.57;6.22;;;20.10;1.00;;;;;;6246540;23;20121;-86
2023/02/22 13:49:47;;;;;;;12.23;7.45;;;20.10;1.00;;;;;;6246294;23;20082;-85
2023/02/22 13:52:39;;;;;;;17.95;7.40;;;19.80;1.00;;;;;;6247444;23;20039;-84
2023/02/22 13:55:31;;;;;;;17.45;7.95;;;20.30;1.00;;;;;;6246436;23;20051;-86
2023/02/22 13:58:19;;;;;;;12.55;7.57;;;20.20;1.00;;;;;;6225530;23;20086;-84
2023/02/22 14:01:27;;;;;;;12.57;8.15;;;19.70;1.00;;;;;;6253019;23;20042;-82
2023/02/22 14:04:26;;;;;;;14.50;9.38;;;19.20;1.00;;;;;;6225557;23;20024;-81
2023/02/22 14:07:24;;;;;;;11.00;7.68;;;18.40;1.00;;;;;;6224748;23;20038;-82
2023/02/22 14:10:46;;;;;;;16.02;8.60;;;17.70;1.00;;;;;;6223838;23;20082;-83
2023/02/22 14:13:55;;;;;;;14.38;8.77;;;17.50;1.00;;;;;;6245828;23;20446;-81
2023/02/22 14:16:43;;;;;;;15.60;8.55;;;17.10;1.00;;;;;;6247079;23;20031;-82
2023/02/22 14:19:31;;;;;;;12.85;8.43;;;17.40;1.00;;;;;;6231407;23;20063;-83
2023/02/22 14:22:27;;;;;;;17.13;9.13;;;17.20;1.00;;;;;;6245231;23;20043;-81
2023/02/22 14:25:42;;;;;;;16.98;9.48;;;17.30;1.00;;;;;;6223801;23;20028;-82
2023/02/22 14:28:51;;;;;;;17.17;9.55;;;17.00;1.00;;;;;;6246087;23;20024;-83
2023/02/22 14:31:53;;;;;;;19.70;9.82;;;16.80;1.00;;;;;;6226197;23;20060;-82
2023/02/22 14:34:46;;;;;;;17.05;9.27;;;16.70;1.00;;;;;;6244909;23;20129;-84
2023/02/22 14:37:42;;;;;;;17.00;9.80;;;17.10;1.00;;;;;;6225397;23;20024;-84
2023/02/22 14:40:36;;;;;;;18.05;10.48;;;17.40;1.00;;;;;;6245412;23;20038;-85
2023/02/22 14:43:25;;;;;;;20.42;10.18;;;17.30;1.00;;;;;;6244819;23;20038;-85
2023/02/22 14:46:20;;;;;;;18.33;9.70;;;17.30;1.00;;;;;;6222465;23;20032;-85
2023/02/22 14:49:17;;;;;;;18.25;10.00;;;17.30;1.00;;;;;;6224594;23;20024;-83
2023/02/22 14:52:23;;;;;;;18.92;9.35;;;17.30;1.00;;;;;;6226278;23;20036;-84
2023/02/22 14:55:16;;;;;;;18.63;10.27;;;17.70;1.00;;;;;;6243657;23;20319;-83
2023/02/22 14:58:28;;;;;;;16.02;10.10;;;18.00;1.00;;;;;;6245890;23;20028;-83
2023/02/22 15:01:18;;;;;;;16.77;9.45;;;18.10;1.00;;;;;;6204524;23;20051;-83
2023/02/22 15:04:16;;;;;;;19.63;9.73;;;18.00;1.00;;;;;;6247679;23;20028;-82
2023/02/22 15:07:29;;;;;;;13.05;8.73;;;18.00;1.00;;;;;;6252258;23;20024;-82
2023/02/22 15:10:27;;;;;;;13.45;8.88;;;18.10;1.00;;;;;;6224751;23;20107;-83
2023/02/22 15:13:23;;;;;;;13.85;8.20;;;18.50;1.00;;;;;;6244141;23;20078;-84
2023/02/22 15:16:12;;;;;;;11.93;8.50;;;18.70;1.00;;;;;;6243565;23;20035;-84
2023/02/22 15:19:06;;;;;;;14.15;8.57;;;18.50;1.00;;;;;;6223209;23;20367;-83
2023/02/22 15:21:56;;;;;;;14.30;9.30;;;18.10;1.00;;;;;;6244212;23;20474;-82
2023/02/22 15:24:46;;;;;;;13.63;8.40;;;17.20;1.00;;;;;;6244627;23;20027;-83
2023/02/22 15:27:37;;;;;;;14.60;9.23;;;16.50;1.00;;;;;;6244561;23;20020;-81
2023/02/22 15:30:32;;;;;;;20.77;9.30;;;15.90;1.00;;;;;;6244089;23;20181;-81
2023/02/22 15:33:23;;;;;;;17.27;9.80;;;15.40;1.00;;;;;;6244787;23;20079;-81
2023/02/22 15:36:18;;;;;;;14.93;9.38;;;14.90;1.00;;;;;;6246029;23;20024;-82
2023/02/22 15:39:07;;;;;;;14.07;9.45;;;14.60;1.00;;;;;;6245312;23;20020;-83
2023/02/22 15:42:21;;;;;;;15.82;8.52;;;14.40;1.00;;;;;;6247670;23;20068;-82